sensor_id;sensor_type;location;lat;lon;timestamp;temperature;humidity
4637;DHT22;2331;48.806;9.140;2023-05-29T00:02:25;19.10;1.00
4637;DHT22;2331;48.806;9.140;2023-05-29T00:04:51;19.00;1.00
4637;DHT22;2331;48.806;9.140;2023-05-29T00:07:18;19.10;1.00
4637;DHT22;2331;48.806;9.140;2023-05-29T00:09:45;19.00;1.00
4637;DHT22;2331;48.806;9.140;2023-05-29T00:12:13;19.10;1.00
4637;DHT22;2331;48.806;9.140;2023-05-29T00:14:40;19.00;1.00
4637;DHT22;2331;48.806;9.140;2023-05-29T00:17:07;18.90;1.00
4637;DHT22;2331;48.806;9.140;2023-05-29T00:19:34;18.80;1.00
4637;DHT22;2331;48.806;9.140;2023-05-29T00:22:01;18.90;1.00
4637;DHT22;2331;48.806;9.140;2023-05-29T00:24:28;18.70;1.00
4637;DHT22;2331;48.806;9.140;2023-05-29T00:26:55;18.70;1.00
4637;DHT22;2331;48.806;9.140;2023-05-29T00:29:23;18.70;1.00
4637;DHT22;2331;48.806;9.140;2023-05-29T00:31:50;18.70;1.00
4637;DHT22;2331;48.806;9.140;2023-05-29T00:34:18;18.70;1.00
4637;DHT22;2331;48.806;9.140;2023-05-29T00:36:45;18.70;1.00
4637;DHT22;2331;48.806;9.140;2023-05-29T00:39:13;18.70;1.00
4637;DHT22;2331;48.806;9.140;2023-05-29T00:41:39;18.60;1.00
4637;DHT22;2331;48.806;9.140;2023-05-29T00:44:06;18.60;1.00
4637;DHT22;2331;48.806;9.140;2023-05-29T00:46:34;18.60;1.00
4637;DHT22;2331;48.806;9.140;2023-05-29T00:49:02;18.50;1.00
4637;DHT22;2331;48.806;9.140;2023-05-29T00:51:30;18.40;1.00
4637;DHT22;2331;48.806;9.140;2023-05-29T00:53:58;18.40;1.00
4637;DHT22;2331;48.806;9.140;2023-05-29T00:56:25;18.30;1.00
4637;DHT22;2331;48.806;9.140;2023-05-29T00:58:53;18.30;1.00
4637;DHT22;2331;48.806;9.140;2023-05-29T01:01:20;18.30;1.00
4637;DHT22;2331;48.806;9.140;2023-05-29T01:03:50;18.30;1.00
4637;DHT22;2331;48.806;9.140;2023-05-29T01:06:19;18.30;1.00
4637;DHT22;2331;48.806;9.140;2023-05-29T01:08:46;18.20;1.00
4637;DHT22;2331;48.806;9.140;2023-05-29T01:11:20;18.20;1.00
4637;DHT22;2331;48.806;9.140;2023-05-29T01:13:49;18.10;1.00
4637;DHT22;2331;48.806;9.140;2023-05-29T01:16:23;18.10;1.00
4637;DHT22;2331;48.806;9.140;2023-05-29T01:18:57;18.10;1.00
4637;DHT22;2331;48.806;9.140;2023-05-29T01:21:42;18.10;1.00
4637;DHT22;2331;48.806;9.140;2023-05-29T01:24:19;18.10;1.00
4637;DHT22;2331;48.806;9.140;2023-05-29T01:26:55;18.00;1.00
4637;DHT22;2331;48.806;9.140;2023-05-29T01:29:26;18.00;1.00
4637;DHT22;2331;48.806;9.140;2023-05-29T01:31:54;18.00;1.00
4637;DHT22;2331;48.806;9.140;2023-05-29T01:34:22;18.00;1.00
4637;DHT22;2331;48.806;9.140;2023-05-29T01:36:49;17.90;1.00
4637;DHT22;2331;48.806;9.140;2023-05-29T01:39:16;17.90;1.00
4637;DHT22;2331;48.806;9.140;2023-05-29T01:41:45;17.80;1.00
4637;DHT22;2331;48.806;9.140;2023-05-29T01:44:13;17.80;1.00
4637;DHT22;2331;48.806;9.140;2023-05-29T01:46:41;17.80;1.00
4637;DHT22;2331;48.806;9.140;2023-05-29T01:49:11;17.70;1.00
4637;DHT22;2331;48.806;9.140;2023-05-29T01:51:38;17.70;1.00
4637;DHT22;2331;48.806;9.140;2023-05-29T01:54:06;17.70;1.00
4637;DHT22;2331;48.806;9.140;2023-05-29T01:56:33;17.70;1.00
4637;DHT22;2331;48.806;9.140;2023-05-29T01:59:02;17.70;1.00
4637;DHT22;2331;48.806;9.140;2023-05-29T02:01:31;17.60;1.00
4637;DHT22;2331;48.806;9.140;2023-05-29T02:03:57;17.60;1.00
4637;DHT22;2331;48.806;9.140;2023-05-29T02:06:24;17.60;1.00
4637;DHT22;2331;48.806;9.140;2023-05-29T02:08:51;17.60;1.00
4637;DHT22;2331;48.806;9.140;2023-05-29T02:11:17;17.60;1.00
4637;DHT22;2331;48.806;9.140;2023-05-29T02:13:45;17.50;1.00
4637;DHT22;2331;48.806;9.140;2023-05-29T02:16:12;17.50;1.00
4637;DHT22;2331;48.806;9.140;2023-05-29T02:18:40;17.40;1.00
4637;DHT22;2331;48.806;9.140;2023-05-29T02:21:08;17.30;1.00
4637;DHT22;2331;48.806;9.140;2023-05-29T02:23:35;17.30;1.00
4637;DHT22;2331;48.806;9.140;2023-05-29T02:26:02;17.30;1.00
4637;DHT22;2331;48.806;9.140;2023-05-29T02:28:28;17.30;1.00
4637;DHT22;2331;48.806;9.140;2023-05-29T02:30:55;17.30;1.00
4637;DHT22;2331;48.806;9.140;2023-05-29T02:33:22;17.20;1.00
4637;DHT22;2331;48.806;9.140;2023-05-29T02:35:50;17.20;1.00
4637;DHT22;2331;48.806;9.140;2023-05-29T02:38:16;17.20;1.00
4637;DHT22;2331;48.806;9.140;2023-05-29T02:40:44;17.20;1.00
4637;DHT22;2331;48.806;9.140;2023-05-29T02:43:12;17.10;1.00
4637;DHT22;2331;48.806;9.140;2023-05-29T02:45:39;17.00;1.00
4637;DHT22;2331;48.806;9.140;2023-05-29T02:48:06;17.00;1.00
4637;DHT22;2331;48.806;9.140;2023-05-29T02:50:33;17.00;1.00
4637;DHT22;2331;48.806;9.140;2023-05-29T02:53:01;17.00;1.00
4637;DHT22;2331;48.806;9.140;2023-05-29T02:55:27;17.00;1.00
4637;DHT22;2331;48.806;9.140;2023-05-29T02:57:54;17.00;1.00
4637;DHT22;2331;48.806;9.140;2023-05-29T03:00:21;17.00;1.00
4637;DHT22;2331;48.806;9.140;2023-05-29T03:02:48;17.00;1.00
4637;DHT22;2331;48.806;9.140;2023-05-29T03:05:14;16.90;1.00
4637;DHT22;2331;48.806;9.140;2023-05-29T03:07:42;16.90;1.00
4637;DHT22;2331;48.806;9.140;2023-05-29T03:10:10;16.90;1.00
4637;DHT22;2331;48.806;9.140;2023-05-29T03:12:38;16.90;1.00
4637;DHT22;2331;48.806;9.140;2023-05-29T03:15:07;16.90;1.00
4637;DHT22;2331;48.806;9.140;2023-05-29T03:17:34;16.80;1.00
4637;DHT22;2331;48.806;9.140;2023-05-29T03:20:02;16.80;1.00
4637;DHT22;2331;48.806;9.140;2023-05-29T03:22:31;16.80;1.00
4637;DHT22;2331;48.806;9.140;2023-05-29T03:24:58;16.80;1.00
4637;DHT22;2331;48.806;9.140;2023-05-29T03:27:26;16.80;1.00
4637;DHT22;2331;48.806;9.140;2023-05-29T03:29:52;16.80;1.00
4637;DHT22;2331;48.806;9.140;2023-05-29T03:32:20;16.70;1.00
4637;DHT22;2331;48.806;9.140;2023-05-29T03:34:46;16.60;1.00
4637;DHT22;2331;48.806;9.140;2023-05-29T03:37:14;16.60;1.00
4637;DHT22;2331;48.806;9.140;2023-05-29T03:39:40;16.60;1.00
4637;DHT22;2331;48.806;9.140;2023-05-29T03:42:07;16.50;1.00
4637;DHT22;2331;48.806;9.140;2023-05-29T03:44:35;16.50;1.00
4637;DHT22;2331;48.806;9.140;2023-05-29T03:47:02;16.50;1.00
4637;DHT22;2331;48.806;9.140;2023-05-29T03:49:28;16.50;1.00
4637;DHT22;2331;48.806;9.140;2023-05-29T03:51:55;16.40;1.00
4637;DHT22;2331;48.806;9.140;2023-05-29T03:54:22;16.40;1.00
4637;DHT22;2331;48.806;9.140;2023-05-29T03:56:48;16.40;1.00
4637;DHT22;2331;48.806;9.140;2023-05-29T03:59:15;16.40;1.00
4637;DHT22;2331;48.806;9.140;2023-05-29T04:01:43;16.40;1.00
4637;DHT22;2331;48.806;9.140;2023-05-29T04:04:10;16.30;1.00
4637;DHT22;2331;48.806;9.140;2023-05-29T04:06:36;16.40;1.00
4637;DHT22;2331;48.806;9.140;2023-05-29T04:09:04;16.40;1.00
4637;DHT22;2331;48.806;9.140;2023-05-29T04:11:31;16.40;1.00
4637;DHT22;2331;48.806;9.140;2023-05-29T04:13:59;16.30;1.00
4637;DHT22;2331;48.806;9.140;2023-05-29T04:16:27;16.30;1.00
4637;DHT22;2331;48.806;9.140;2023-05-29T04:18:55;16.30;1.00
4637;DHT22;2331;48.806;9.140;2023-05-29T04:21:22;16.30;1.00
4637;DHT22;2331;48.806;9.140;2023-05-29T04:23:48;16.30;1.00
4637;DHT22;2331;48.806;9.140;2023-05-29T04:26:15;16.30;1.00
4637;DHT22;2331;48.806;9.140;2023-05-29T04:28:42;16.30;1.00
4637;DHT22;2331;48.806;9.140;2023-05-29T04:31:09;16.20;1.00
4637;DHT22;2331;48.806;9.140;2023-05-29T04:33:39;16.30;1.00
4637;DHT22;2331;48.806;9.140;2023-05-29T04:36:08;16.20;1.00
4637;DHT22;2331;48.806;9.140;2023-05-29T04:38:36;16.30;1.00
4637;DHT22;2331;48.806;9.140;2023-05-29T04:41:03;16.30;1.00
4637;DHT22;2331;48.806;9.140;2023-05-29T04:43:29;16.30;1.00
4637;DHT22;2331;48.806;9.140;2023-05-29T04:45:56;16.30;1.00
4637;DHT22;2331;48.806;9.140;2023-05-29T04:48:23;16.40;1.00
4637;DHT22;2331;48.806;9.140;2023-05-29T04:50:51;16.40;1.00
4637;DHT22;2331;48.806;9.140;2023-05-29T04:53:19;16.40;1.00
4637;DHT22;2331;48.806;9.140;2023-05-29T04:55:45;16.30;1.00
4637;DHT22;2331;48.806;9.140;2023-05-29T04:58:12;16.30;1.00
4637;DHT22;2331;48.806;9.140;2023-05-29T05:00:39;16.40;1.00
4637;DHT22;2331;48.806;9.140;2023-05-29T05:03:06;16.40;1.00
4637;DHT22;2331;48.806;9.140;2023-05-29T05:05:32;16.40;1.00
4637;DHT22;2331;48.806;9.140;2023-05-29T05:07:59;16.40;1.00
4637;DHT22;2331;48.806;9.140;2023-05-29T05:10:27;16.40;1.00
4637;DHT22;2331;48.806;9.140;2023-05-29T05:12:54;16.40;1.00
4637;DHT22;2331;48.806;9.140;2023-05-29T05:15:20;16.40;1.00
4637;DHT22;2331;48.806;9.140;2023-05-29T05:17:47;16.50;1.00
4637;DHT22;2331;48.806;9.140;2023-05-29T05:20:14;16.50;1.00
4637;DHT22;2331;48.806;9.140;2023-05-29T05:22:40;16.60;1.00
4637;DHT22;2331;48.806;9.140;2023-05-29T05:25:08;16.60;1.00
4637;DHT22;2331;48.806;9.140;2023-05-29T05:27:36;16.70;1.00
4637;DHT22;2331;48.806;9.140;2023-05-29T05:30:02;16.70;1.00
4637;DHT22;2331;48.806;9.140;2023-05-29T05:32:29;16.70;1.00
4637;DHT22;2331;48.806;9.140;2023-05-29T05:34:56;16.80;1.00
4637;DHT22;2331;48.806;9.140;2023-05-29T05:37:23;16.80;1.00
4637;DHT22;2331;48.806;9.140;2023-05-29T05:39:50;16.90;1.00
4637;DHT22;2331;48.806;9.140;2023-05-29T05:42:18;16.90;1.00
4637;DHT22;2331;48.806;9.140;2023-05-29T05:44:46;17.00;1.00
4637;DHT22;2331;48.806;9.140;2023-05-29T05:47:13;17.00;1.00
4637;DHT22;2331;48.806;9.140;2023-05-29T05:49:40;17.10;1.00
4637;DHT22;2331;48.806;9.140;2023-05-29T05:52:07;17.10;1.00
4637;DHT22;2331;48.806;9.140;2023-05-29T05:54:33;17.20;1.00
4637;DHT22;2331;48.806;9.140;2023-05-29T05:57:00;17.20;1.00
4637;DHT22;2331;48.806;9.140;2023-05-29T05:59:28;17.20;1.00
4637;DHT22;2331;48.806;9.140;2023-05-29T06:01:56;17.30;1.00
4637;DHT22;2331;48.806;9.140;2023-05-29T06:04:23;17.30;1.00
4637;DHT22;2331;48.806;9.140;2023-05-29T06:06:50;17.40;1.00
4637;DHT22;2331;48.806;9.140;2023-05-29T06:09:17;17.40;1.00
4637;DHT22;2331;48.806;9.140;2023-05-29T06:11:44;17.40;1.00
4637;DHT22;2331;48.806;9.140;2023-05-29T06:14:11;17.50;1.00
4637;DHT22;2331;48.806;9.140;2023-05-29T06:16:37;17.50;1.00
4637;DHT22;2331;48.806;9.140;2023-05-29T06:19:05;17.50;1.00
4637;DHT22;2331;48.806;9.140;2023-05-29T06:21:32;17.50;1.00
4637;DHT22;2331;48.806;9.140;2023-05-29T06:23:59;17.60;1.00
4637;DHT22;2331;48.806;9.140;2023-05-29T06:26:26;17.60;1.00
4637;DHT22;2331;48.806;9.140;2023-05-29T06:28:53;17.60;1.00
4637;DHT22;2331;48.806;9.140;2023-05-29T06:31:20;17.60;1.00
4637;DHT22;2331;48.806;9.140;2023-05-29T06:33:47;17.60;1.00
4637;DHT22;2331;48.806;9.140;2023-05-29T06:36:15;17.70;1.00
4637;DHT22;2331;48.806;9.140;2023-05-29T06:38:46;17.70;1.00
4637;DHT22;2331;48.806;9.140;2023-05-29T06:41:13;17.80;1.00
4637;DHT22;2331;48.806;9.140;2023-05-29T06:43:40;17.90;1.00
4637;DHT22;2331;48.806;9.140;2023-05-29T06:46:06;17.80;1.00
4637;DHT22;2331;48.806;9.140;2023-05-29T06:48:33;17.80;1.00
4637;DHT22;2331;48.806;9.140;2023-05-29T06:51:00;17.90;1.00
4637;DHT22;2331;48.806;9.140;2023-05-29T06:53:28;17.90;1.00
4637;DHT22;2331;48.806;9.140;2023-05-29T06:55:55;17.90;1.00
4637;DHT22;2331;48.806;9.140;2023-05-29T06:58:21;18.00;1.00
4637;DHT22;2331;48.806;9.140;2023-05-29T07:00:48;18.00;1.00
4637;DHT22;2331;48.806;9.140;2023-05-29T07:03:15;18.10;1.00
4637;DHT22;2331;48.806;9.140;2023-05-29T07:05:41;18.10;1.00
4637;DHT22;2331;48.806;9.140;2023-05-29T07:08:08;18.10;1.00
4637;DHT22;2331;48.806;9.140;2023-05-29T07:10:36;18.20;1.00
4637;DHT22;2331;48.806;9.140;2023-05-29T07:13:03;18.20;1.00
4637;DHT22;2331;48.806;9.140;2023-05-29T07:15:31;18.30;1.00
4637;DHT22;2331;48.806;9.140;2023-05-29T07:17:58;18.30;1.00
4637;DHT22;2331;48.806;9.140;2023-05-29T07:20:25;18.40;1.00
4637;DHT22;2331;48.806;9.140;2023-05-29T07:22:51;18.50;1.00
4637;DHT22;2331;48.806;9.140;2023-05-29T07:25:18;18.50;1.00
4637;DHT22;2331;48.806;9.140;2023-05-29T07:27:46;18.60;1.00
4637;DHT22;2331;48.806;9.140;2023-05-29T07:30:13;18.60;1.00
4637;DHT22;2331;48.806;9.140;2023-05-29T07:32:40;18.70;1.00
4637;DHT22;2331;48.806;9.140;2023-05-29T07:35:07;18.80;1.00
4637;DHT22;2331;48.806;9.140;2023-05-29T07:37:34;18.90;1.00
4637;DHT22;2331;48.806;9.140;2023-05-29T07:40:01;19.00;1.00
4637;DHT22;2331;48.806;9.140;2023-05-29T07:42:29;19.10;1.00
4637;DHT22;2331;48.806;9.140;2023-05-29T07:44:57;19.20;1.00
4637;DHT22;2331;48.806;9.140;2023-05-29T07:47:24;19.20;1.00
4637;DHT22;2331;48.806;9.140;2023-05-29T07:49:51;19.40;1.00
4637;DHT22;2331;48.806;9.140;2023-05-29T07:52:18;19.40;1.00
4637;DHT22;2331;48.806;9.140;2023-05-29T07:54:45;19.50;1.00
4637;DHT22;2331;48.806;9.140;2023-05-29T07:57:11;19.50;1.00
4637;DHT22;2331;48.806;9.140;2023-05-29T07:59:41;19.60;1.00
4637;DHT22;2331;48.806;9.140;2023-05-29T08:02:09;19.60;1.00
4637;DHT22;2331;48.806;9.140;2023-05-29T08:04:36;19.70;1.00
4637;DHT22;2331;48.806;9.140;2023-05-29T08:07:03;19.80;1.00
4637;DHT22;2331;48.806;9.140;2023-05-29T08:09:30;20.00;1.00
4637;DHT22;2331;48.806;9.140;2023-05-29T08:11:56;20.10;1.00
4637;DHT22;2331;48.806;9.140;2023-05-29T08:14:25;20.20;1.00
4637;DHT22;2331;48.806;9.140;2023-05-29T08:16:52;20.30;1.00
4637;DHT22;2331;48.806;9.140;2023-05-29T08:19:20;20.40;1.00
4637;DHT22;2331;48.806;9.140;2023-05-29T08:21:46;20.50;1.00
4637;DHT22;2331;48.806;9.140;2023-05-29T08:24:13;20.60;1.00
4637;DHT22;2331;48.806;9.140;2023-05-29T08:26:40;20.60;1.00
4637;DHT22;2331;48.806;9.140;2023-05-29T08:29:09;20.70;1.00
4637;DHT22;2331;48.806;9.140;2023-05-29T08:31:35;20.80;1.00
4637;DHT22;2331;48.806;9.140;2023-05-29T08:34:02;20.90;1.00
4637;DHT22;2331;48.806;9.140;2023-05-29T08:36:30;20.90;1.00
4637;DHT22;2331;48.806;9.140;2023-05-29T08:38:57;21.00;1.00
4637;DHT22;2331;48.806;9.140;2023-05-29T08:41:28;21.10;1.00
4637;DHT22;2331;48.806;9.140;2023-05-29T08:43:59;21.10;1.00
4637;DHT22;2331;48.806;9.140;2023-05-29T08:46:29;21.20;1.00
4637;DHT22;2331;48.806;9.140;2023-05-29T08:48:58;21.30;1.00
4637;DHT22;2331;48.806;9.140;2023-05-29T08:51:32;21.40;1.00
4637;DHT22;2331;48.806;9.140;2023-05-29T08:54:02;21.50;1.00
4637;DHT22;2331;48.806;9.140;2023-05-29T08:56:29;21.60;1.00
4637;DHT22;2331;48.806;9.140;2023-05-29T08:58:56;21.70;1.00
4637;DHT22;2331;48.806;9.140;2023-05-29T09:01:25;21.80;1.00
4637;DHT22;2331;48.806;9.140;2023-05-29T09:03:51;21.90;1.00
4637;DHT22;2331;48.806;9.140;2023-05-29T09:06:18;22.00;1.00
4637;DHT22;2331;48.806;9.140;2023-05-29T09:08:46;22.00;1.00
4637;DHT22;2331;48.806;9.140;2023-05-29T09:11:15;22.10;1.00
4637;DHT22;2331;48.806;9.140;2023-05-29T09:13:42;22.20;1.00
4637;DHT22;2331;48.806;9.140;2023-05-29T09:16:09;22.30;1.00
4637;DHT22;2331;48.806;9.140;2023-05-29T09:18:36;22.40;1.00
4637;DHT22;2331;48.806;9.140;2023-05-29T09:21:06;22.40;1.00
4637;DHT22;2331;48.806;9.140;2023-05-29T09:23:34;22.50;1.00
4637;DHT22;2331;48.806;9.140;2023-05-29T09:26:02;22.60;1.00
4637;DHT22;2331;48.806;9.140;2023-05-29T09:28:31;22.70;1.00
4637;DHT22;2331;48.806;9.140;2023-05-29T09:30:59;22.80;1.00
4637;DHT22;2331;48.806;9.140;2023-05-29T09:33:26;22.80;1.00
4637;DHT22;2331;48.806;9.140;2023-05-29T09:35:53;22.90;1.00
4637;DHT22;2331;48.806;9.140;2023-05-29T09:38:20;23.00;1.00
4637;DHT22;2331;48.806;9.140;2023-05-29T09:40:47;23.10;1.00
4637;DHT22;2331;48.806;9.140;2023-05-29T09:43:14;23.10;1.00
4637;DHT22;2331;48.806;9.140;2023-05-29T09:45:45;23.20;1.00
4637;DHT22;2331;48.806;9.140;2023-05-29T09:48:13;23.30;1.00
4637;DHT22;2331;48.806;9.140;2023-05-29T09:50:40;23.40;1.00
4637;DHT22;2331;48.806;9.140;2023-05-29T09:53:17;23.50;1.00
4637;DHT22;2331;48.806;9.140;2023-05-29T09:55:45;23.60;1.00
4637;DHT22;2331;48.806;9.140;2023-05-29T09:58:13;23.70;1.00
4637;DHT22;2331;48.806;9.140;2023-05-29T10:00:43;23.80;1.00
4637;DHT22;2331;48.806;9.140;2023-05-29T10:03:09;23.90;1.00
4637;DHT22;2331;48.806;9.140;2023-05-29T10:05:37;24.00;1.00
4637;DHT22;2331;48.806;9.140;2023-05-29T10:08:05;24.00;1.00
4637;DHT22;2331;48.806;9.140;2023-05-29T10:10:35;24.10;1.00
4637;DHT22;2331;48.806;9.140;2023-05-29T10:13:05;24.10;1.00
4637;DHT22;2331;48.806;9.140;2023-05-29T10:15:33;24.20;1.00
4637;DHT22;2331;48.806;9.140;2023-05-29T10:18:03;24.20;1.00
4637;DHT22;2331;48.806;9.140;2023-05-29T10:20:32;24.30;1.00
4637;DHT22;2331;48.806;9.140;2023-05-29T10:23:00;24.40;1.00
4637;DHT22;2331;48.806;9.140;2023-05-29T10:25:29;24.50;1.00
4637;DHT22;2331;48.806;9.140;2023-05-29T10:27:58;24.50;1.00
4637;DHT22;2331;48.806;9.140;2023-05-29T10:30:29;24.50;1.00
4637;DHT22;2331;48.806;9.140;2023-05-29T10:33:30;24.60;1.00
4637;DHT22;2331;48.806;9.140;2023-05-29T10:36:07;24.70;1.00
4637;DHT22;2331;48.806;9.140;2023-05-29T10:38:36;24.80;1.00
4637;DHT22;2331;48.806;9.140;2023-05-29T10:41:28;24.90;1.00
4637;DHT22;2331;48.806;9.140;2023-05-29T10:43:55;25.00;1.00
4637;DHT22;2331;48.806;9.140;2023-05-29T10:47:03;25.10;1.00
4637;DHT22;2331;48.806;9.140;2023-05-29T10:49:30;25.10;1.00
4637;DHT22;2331;48.806;9.140;2023-05-29T10:51:58;25.10;1.00
4637;DHT22;2331;48.806;9.140;2023-05-29T10:54:26;25.10;1.00
4637;DHT22;2331;48.806;9.140;2023-05-29T10:56:55;25.20;1.00
4637;DHT22;2331;48.806;9.140;2023-05-29T10:59:23;25.30;1.00
4637;DHT22;2331;48.806;9.140;2023-05-29T11:01:52;25.40;1.00
4637;DHT22;2331;48.806;9.140;2023-05-29T11:04:27;25.40;1.00
4637;DHT22;2331;48.806;9.140;2023-05-29T11:06:56;25.50;1.00
4637;DHT22;2331;48.806;9.140;2023-05-29T11:09:30;25.60;1.00
4637;DHT22;2331;48.806;9.140;2023-05-29T11:12:14;25.70;1.00
4637;DHT22;2331;48.806;9.140;2023-05-29T11:14:55;25.80;1.00
4637;DHT22;2331;48.806;9.140;2023-05-29T11:17:32;25.80;1.00
4637;DHT22;2331;48.806;9.140;2023-05-29T11:20:03;25.90;1.00
4637;DHT22;2331;48.806;9.140;2023-05-29T11:22:53;25.90;1.00
4637;DHT22;2331;48.806;9.140;2023-05-29T11:25:22;26.00;1.00
4637;DHT22;2331;48.806;9.140;2023-05-29T11:27:49;26.00;1.00
4637;DHT22;2331;48.806;9.140;2023-05-29T11:30:17;26.10;1.00
4637;DHT22;2331;48.806;9.140;2023-05-29T11:32:45;26.10;1.00
4637;DHT22;2331;48.806;9.140;2023-05-29T11:35:13;26.20;1.00
4637;DHT22;2331;48.806;9.140;2023-05-29T11:37:43;26.20;1.00
4637;DHT22;2331;48.806;9.140;2023-05-29T11:40:12;26.30;1.00
4637;DHT22;2331;48.806;9.140;2023-05-29T11:42:41;26.30;1.00
4637;DHT22;2331;48.806;9.140;2023-05-29T11:45:12;26.40;1.00
4637;DHT22;2331;48.806;9.140;2023-05-29T11:47:54;26.50;1.00
4637;DHT22;2331;48.806;9.140;2023-05-29T11:50:24;26.60;1.00
4637;DHT22;2331;48.806;9.140;2023-05-29T11:52:51;26.50;1.00
4637;DHT22;2331;48.806;9.140;2023-05-29T11:55:18;26.60;1.00
4637;DHT22;2331;48.806;9.140;2023-05-29T11:57:46;26.60;1.00
4637;DHT22;2331;48.806;9.140;2023-05-29T12:00:14;26.60;1.00
4637;DHT22;2331;48.806;9.140;2023-05-29T12:02:41;26.70;1.00
4637;DHT22;2331;48.806;9.140;2023-05-29T12:05:09;26.70;1.00
4637;DHT22;2331;48.806;9.140;2023-05-29T12:07:47;26.80;1.00
4637;DHT22;2331;48.806;9.140;2023-05-29T12:10:15;26.90;1.00
4637;DHT22;2331;48.806;9.140;2023-05-29T12:12:46;26.90;1.00
4637;DHT22;2331;48.806;9.140;2023-05-29T12:15:13;27.00;1.00
4637;DHT22;2331;48.806;9.140;2023-05-29T12:17:41;27.00;1.00
4637;DHT22;2331;48.806;9.140;2023-05-29T12:20:11;27.10;1.00
4637;DHT22;2331;48.806;9.140;2023-05-29T12:22:39;27.10;1.00
4637;DHT22;2331;48.806;9.140;2023-05-29T12:25:09;27.00;1.00
4637;DHT22;2331;48.806;9.140;2023-05-29T12:27:37;27.10;1.00
4637;DHT22;2331;48.806;9.140;2023-05-29T12:30:09;27.20;1.00
4637;DHT22;2331;48.806;9.140;2023-05-29T12:32:36;27.20;1.00
4637;DHT22;2331;48.806;9.140;2023-05-29T12:35:11;27.20;1.00
4637;DHT22;2331;48.806;9.140;2023-05-29T12:37:42;27.30;1.00
4637;DHT22;2331;48.806;9.140;2023-05-29T12:40:15;27.40;1.00
4637;DHT22;2331;48.806;9.140;2023-05-29T12:42:42;27.40;1.00
4637;DHT22;2331;48.806;9.140;2023-05-29T12:45:09;27.50;1.00
4637;DHT22;2331;48.806;9.140;2023-05-29T12:47:36;27.40;1.00
4637;DHT22;2331;48.806;9.140;2023-05-29T12:50:19;27.50;1.00
4637;DHT22;2331;48.806;9.140;2023-05-29T12:52:53;27.50;1.00
4637;DHT22;2331;48.806;9.140;2023-05-29T12:55:21;27.70;1.00
4637;DHT22;2331;48.806;9.140;2023-05-29T12:57:48;27.60;1.00
4637;DHT22;2331;48.806;9.140;2023-05-29T13:00:15;27.70;1.00
4637;DHT22;2331;48.806;9.140;2023-05-29T13:02:44;27.70;1.00
4637;DHT22;2331;48.806;9.140;2023-05-29T13:05:10;27.80;1.00
4637;DHT22;2331;48.806;9.140;2023-05-29T13:07:37;27.80;1.00
4637;DHT22;2331;48.806;9.140;2023-05-29T13:10:05;27.90;1.00
4637;DHT22;2331;48.806;9.140;2023-05-29T13:12:34;28.00;1.00
4637;DHT22;2331;48.806;9.140;2023-05-29T13:15:01;28.10;1.00
4637;DHT22;2331;48.806;9.140;2023-05-29T13:17:28;28.10;1.00
4637;DHT22;2331;48.806;9.140;2023-05-29T13:19:54;28.20;1.00
4637;DHT22;2331;48.806;9.140;2023-05-29T13:22:21;28.20;1.00
4637;DHT22;2331;48.806;9.140;2023-05-29T13:24:48;28.20;1.00
4637;DHT22;2331;48.806;9.140;2023-05-29T13:27:15;28.20;1.00
4637;DHT22;2331;48.806;9.140;2023-05-29T13:29:43;28.20;1.00
4637;DHT22;2331;48.806;9.140;2023-05-29T13:32:10;28.30;1.00
4637;DHT22;2331;48.806;9.140;2023-05-29T13:34:37;28.30;1.00
4637;DHT22;2331;48.806;9.140;2023-05-29T13:37:04;28.30;1.00
4637;DHT22;2331;48.806;9.140;2023-05-29T13:39:30;28.20;1.00
4637;DHT22;2331;48.806;9.140;2023-05-29T13:41:57;28.20;1.00
4637;DHT22;2331;48.806;9.140;2023-05-29T13:44:24;28.30;1.00
4637;DHT22;2331;48.806;9.140;2023-05-29T13:46:52;28.40;1.00
4637;DHT22;2331;48.806;9.140;2023-05-29T13:49:19;28.50;1.00
4637;DHT22;2331;48.806;9.140;2023-05-29T13:51:45;28.40;1.00
4637;DHT22;2331;48.806;9.140;2023-05-29T13:54:18;28.50;1.00
4637;DHT22;2331;48.806;9.140;2023-05-29T13:56:45;28.50;1.00
4637;DHT22;2331;48.806;9.140;2023-05-29T13:59:12;28.60;1.00
4637;DHT22;2331;48.806;9.140;2023-05-29T14:01:38;28.50;1.00
4637;DHT22;2331;48.806;9.140;2023-05-29T14:04:06;28.60;1.00
4637;DHT22;2331;48.806;9.140;2023-05-29T14:06:33;28.50;1.00
4637;DHT22;2331;48.806;9.140;2023-05-29T14:09:02;28.50;1.00
4637;DHT22;2331;48.806;9.140;2023-05-29T14:11:29;28.50;1.00
4637;DHT22;2331;48.806;9.140;2023-05-29T14:13:55;28.50;1.00
4637;DHT22;2331;48.806;9.140;2023-05-29T14:16:22;28.70;1.00
4637;DHT22;2331;48.806;9.140;2023-05-29T14:18:49;28.70;1.00
4637;DHT22;2331;48.806;9.140;2023-05-29T14:21:17;28.80;1.00
4637;DHT22;2331;48.806;9.140;2023-05-29T14:23:45;28.80;1.00
4637;DHT22;2331;48.806;9.140;2023-05-29T14:26:12;28.90;1.00
4637;DHT22;2331;48.806;9.140;2023-05-29T14:28:38;28.90;1.00
4637;DHT22;2331;48.806;9.140;2023-05-29T14:31:05;29.00;1.00
4637;DHT22;2331;48.806;9.140;2023-05-29T14:33:32;29.00;1.00
4637;DHT22;2331;48.806;9.140;2023-05-29T14:35:59;29.00;1.00
4637;DHT22;2331;48.806;9.140;2023-05-29T14:38:28;29.00;1.00
4637;DHT22;2331;48.806;9.140;2023-05-29T14:40:55;29.00;1.00
4637;DHT22;2331;48.806;9.140;2023-05-29T14:43:21;29.00;1.00
4637;DHT22;2331;48.806;9.140;2023-05-29T14:45:48;29.00;1.00
4637;DHT22;2331;48.806;9.140;2023-05-29T14:48:15;29.00;1.00
4637;DHT22;2331;48.806;9.140;2023-05-29T14:50:42;29.00;1.00
4637;DHT22;2331;48.806;9.140;2023-05-29T14:53:09;29.00;1.00
4637;DHT22;2331;48.806;9.140;2023-05-29T14:55:40;29.00;1.00
4637;DHT22;2331;48.806;9.140;2023-05-29T14:58:07;29.00;1.00
4637;DHT22;2331;48.806;9.140;2023-05-29T15:00:34;29.00;1.00
4637;DHT22;2331;48.806;9.140;2023-05-29T15:03:01;29.00;1.00
4637;DHT22;2331;48.806;9.140;2023-05-29T15:05:28;29.00;1.00
4637;DHT22;2331;48.806;9.140;2023-05-29T15:07:55;29.10;1.00
4637;DHT22;2331;48.806;9.140;2023-05-29T15:10:23;28.90;1.00
4637;DHT22;2331;48.806;9.140;2023-05-29T15:12:52;29.00;1.00
4637;DHT22;2331;48.806;9.140;2023-05-29T15:15:22;29.00;1.00
4637;DHT22;2331;48.806;9.140;2023-05-29T15:17:49;29.10;1.00
4637;DHT22;2331;48.806;9.140;2023-05-29T15:20:19;29.20;1.00
4637;DHT22;2331;48.806;9.140;2023-05-29T15:22:51;29.30;1.00
4637;DHT22;2331;48.806;9.140;2023-05-29T15:25:24;29.30;1.00
4637;DHT22;2331;48.806;9.140;2023-05-29T15:27:53;29.40;1.00
4637;DHT22;2331;48.806;9.140;2023-05-29T15:30:27;29.40;1.00
4637;DHT22;2331;48.806;9.140;2023-05-29T15:32:54;29.40;1.00
4637;DHT22;2331;48.806;9.140;2023-05-29T15:35:21;29.40;1.00
4637;DHT22;2331;48.806;9.140;2023-05-29T15:37:50;29.50;1.00
4637;DHT22;2331;48.806;9.140;2023-05-29T15:40:17;29.40;1.00
4637;DHT22;2331;48.806;9.140;2023-05-29T15:42:44;29.50;1.00
4637;DHT22;2331;48.806;9.140;2023-05-29T15:45:13;29.50;1.00
4637;DHT22;2331;48.806;9.140;2023-05-29T15:47:40;29.50;1.00
4637;DHT22;2331;48.806;9.140;2023-05-29T15:50:08;29.50;1.00
4637;DHT22;2331;48.806;9.140;2023-05-29T15:52:34;29.50;1.00
4637;DHT22;2331;48.806;9.140;2023-05-29T15:55:05;29.40;1.00
4637;DHT22;2331;48.806;9.140;2023-05-29T15:57:32;29.30;1.00
4637;DHT22;2331;48.806;9.140;2023-05-29T15:59:58;29.40;1.00
4637;DHT22;2331;48.806;9.140;2023-05-29T16:02:26;29.30;1.00
4637;DHT22;2331;48.806;9.140;2023-05-29T16:04:53;29.30;1.00
4637;DHT22;2331;48.806;9.140;2023-05-29T16:07:20;29.40;1.00
4637;DHT22;2331;48.806;9.140;2023-05-29T16:09:47;29.40;1.00
4637;DHT22;2331;48.806;9.140;2023-05-29T16:12:14;29.40;1.00
4637;DHT22;2331;48.806;9.140;2023-05-29T16:14:44;29.40;1.00
4637;DHT22;2331;48.806;9.140;2023-05-29T16:17:20;29.40;1.00
4637;DHT22;2331;48.806;9.140;2023-05-29T16:19:48;29.40;1.00
4637;DHT22;2331;48.806;9.140;2023-05-29T16:22:17;29.40;1.00
4637;DHT22;2331;48.806;9.140;2023-05-29T16:24:44;29.40;1.00